Time;durP1;ratioP1;P1;durP2;ratioP2;P2;SDS_P1;SDS_P2;PMS_P1;PMS_P2;Temp;Humidity;BMP_temperature;BMP_pressure;BME280_temperature;BME280_humidity;BME280_pressure;Samples;Min_cycle;Max_cycle;Signal;HPM_P1;HPM_P2
2023/05/11 00:01:06;;;;;;;4.95;3.63;;;;;;;9.80;nan;39540.66;4975354;28;20173;-69
2023/05/11 00:03:32;;;;;;;5.53;3.53;;;;;;;9.54;nan;43678.38;4975571;28;20193;-68
2023/05/11 00:05:58;;;;;;;5.80;3.53;;;;;;;9.55;nan;46915.38;4975423;28;20216;-69
2023/05/11 00:08:24;;;;;;;5.13;3.47;;;;;;;9.50;nan;45182.41;4973954;28;20170;-69
2023/05/11 00:10:49;;;;;;;3.80;2.87;;;;;;;9.89;nan;47763.41;4974898;28;20325;-68
2023/05/11 00:13:15;;;;;;;6.07;3.55;;;;;;;9.60;nan;46965.09;4974778;28;20249;-68
2023/05/11 00:15:41;;;;;;;6.93;4.27;;;;;;;9.58;nan;46778.38;4974860;28;20166;-68
2023/05/11 00:18:06;;;;;;;5.03;3.40;;;;;;;9.43;nan;43263.84;4975186;28;20184;-69
2023/05/11 00:20:32;;;;;;;3.97;3.07;;;;;;;9.63;nan;39667.72;4974769;28;20240;-67
2023/05/11 00:22:57;;;;;;;4.03;2.90;;;;;;;9.67;nan;38398.94;4974343;28;20205;-68
2023/05/11 00:25:23;;;;;;;5.40;3.43;;;;;;;9.56;nan;30121.66;4976949;28;20197;-68
2023/05/11 00:27:48;;;;;;;4.43;3.08;;;;;;;9.36;nan;26232.41;4974718;28;20302;-69
2023/05/11 00:30:14;;;;;;;4.72;3.03;;;;;;;9.64;nan;27217.00;4974537;28;20228;-68
2023/05/11 00:32:40;;;;;;;5.03;3.17;;;;;;;9.61;nan;27861.63;4974427;28;20249;-68
2023/05/11 00:35:06;;;;;;;4.15;3.05;;;;;;;9.42;nan;28496.66;4974618;28;20547;-68
2023/05/11 00:37:32;;;;;;;4.82;3.03;;;;;;;9.71;nan;30130.53;4974159;28;20184;-68
2023/05/11 00:39:57;;;;;;;4.65;3.08;;;;;;;9.66;nan;30127.47;4974270;28;20178;-68
2023/05/11 00:42:23;;;;;;;4.68;3.25;;;;;;;9.76;nan;29163.28;4972955;28;20201;-68
2023/05/11 00:44:48;;;;;;;5.35;3.50;;;;;;;9.69;nan;25927.41;4974832;28;20203;-68
2023/05/11 00:47:13;;;;;;;7.68;3.47;;;;;;;9.66;nan;14961.00;4974527;28;20235;-68
2023/05/11 00:49:40;;;;;;;8.05;3.45;;;;;;;9.61;nan;16569.06;4974680;28;20271;-68
2023/05/11 00:52:07;;;;;;;5.75;3.47;;;;;;;9.67;nan;18182.59;4974267;28;20188;-67
2023/05/11 00:54:33;;;;;;;5.13;3.38;;;;;;;9.67;nan;17537.88;4974714;28;20223;-68
2023/05/11 00:56:59;;;;;;;5.57;3.35;;;;;;;9.57;nan;19145.25;4974426;28;20188;-69
2023/05/11 00:59:24;;;;;;;6.55;3.95;;;;;;;9.15;nan;16229.81;4974446;28;20177;-68
2023/05/11 01:01:50;;;;;;;5.85;3.75;;;;;;;9.13;nan;10762.72;4976166;28;20633;-68
2023/05/11 01:04:15;;;;;;;4.77;3.47;;;;;;;9.07;nan;6908.47;4974173;28;20217;-69
2023/05/11 01:06:54;;;;;;;5.72;3.70;;;;;;;9.37;nan;3385.78;4974166;28;20185;-68
2023/05/11 01:09:41;;;;;;;5.78;3.53;;;;;;;9.52;nan;4029.91;4989382;28;20302;-68
2023/05/11 01:12:13;;;;;;;6.57;3.93;;;;;;;9.40;nan;5631.84;4974206;28;20338;-68
2023/05/11 01:14:45;;;;;;;4.03;3.25;;;;;;;8.50;nan;2410.75;4973987;28;20626;-68
2023/05/11 01:17:19;;;;;;;5.30;3.63;;;;;;;9.26;nan;-781.47;4973635;28;20174;-68
2023/05/11 01:19:55;;;;;;;5.63;3.63;;;;;;;8.88;nan;-3664.16;4974013;28;20233;-68
2023/05/11 01:22:32;;;;;;;7.05;3.47;;;;;;;9.38;nan;-5261.13;4973935;28;20157;-68
2023/05/11 01:25:06;;;;;;;5.67;3.63;;;;;;;9.28;nan;-5900.91;4973064;28;20331;-69
2023/05/11 01:28:01;;;;;;;7.78;4.28;;;;;;;9.34;nan;-4941.41;4973756;28;20177;-69
2023/05/11 01:30:32;;;;;;;5.90;4.00;;;;;;;8.98;nan;-6540.44;4991988;28;20193;-68
2023/05/11 01:33:04;;;;;;;6.78;3.65;;;;;;;9.01;nan;-7498.84;4973891;28;20173;-68
2023/05/11 01:35:34;;;;;;;6.27;3.97;;;;;;;8.99;nan;-9414.75;4973502;28;20177;-69
2023/05/11 01:38:00;;;;;;;5.53;3.70;;;;;;;9.25;nan;-11331.47;4978721;28;20275;-68
2023/05/11 01:40:31;;;;;;;7.03;3.90;;;;;;;9.02;nan;-11967.84;4973475;28;20568;-68
2023/05/11 01:43:03;;;;;;;5.40;3.58;;;;;;;8.82;nan;-12603.97;4973422;28;20201;-69
2023/05/11 01:45:34;;;;;;;7.13;3.77;;;;;;;9.15;nan;-13244.97;4973452;28;20212;-68
2023/05/11 01:48:04;;;;;;;5.87;3.73;;;;;;;9.08;nan;-13881.94;4973520;28;20253;-68
2023/05/11 01:50:31;;;;;;;7.13;3.93;;;;;;;9.09;nan;-14838.44;4973012;28;20611;-68
2023/05/11 01:52:58;;;;;;;6.10;3.67;;;;;;;9.04;nan;-14519.03;4973434;28;20208;-67
2023/05/11 01:55:25;;;;;;;6.00;3.93;;;;;;;9.03;nan;-13881.41;4973176;28;20177;-68
2023/05/11 01:57:53;;;;;;;6.40;4.03;;;;;;;9.23;nan;-12926.78;4973552;28;20199;-69
2023/05/11 02:00:19;;;;;;;5.97;4.03;;;;;;;9.21;nan;-12926.56;4973303;28;20177;-68
2023/05/11 02:02:47;;;;;;;8.13;3.50;;;;;;;9.15;nan;-13563.84;4973835;28;20174;-68
2023/05/11 02:05:21;;;;;;;5.17;3.60;;;;;;;9.13;nan;-11649.69;4972859;28;20657;-70
2023/05/11 02:07:49;;;;;;;5.33;3.67;;;;;;;8.88;nan;-12923.38;4973360;28;20174;-68
2023/05/11 02:10:16;;;;;;;10.67;4.37;;;;;;;8.78;nan;-13878.56;4973069;28;20221;-68
2023/05/11 02:12:43;;;;;;;9.77;3.37;;;;;;;8.97;nan;-14518.22;4974967;28;20507;-68
2023/05/11 02:15:10;;;;;;;5.97;3.40;;;;;;;8.92;nan;-14517.59;4972750;28;20648;-67
2023/05/11 02:17:39;;;;;;;4.77;3.00;;;;;;;9.08;nan;-14200.81;4972452;28;20205;-68
2023/05/11 02:20:08;;;;;;;4.90;3.63;;;;;;;8.96;nan;-14199.31;4973155;28;20637;-68
2023/05/11 02:22:35;;;;;;;5.30;3.47;;;;;;;8.88;nan;-14517.16;4953499;28;20213;-68
2023/05/11 02:25:01;;;;;;;4.73;3.20;;;;;;;8.55;nan;-14194.47;4953861;28;20634;-68
2023/05/11 02:27:26;;;;;;;6.83;3.60;;;;;;;8.88;nan;-14517.16;4953770;28;20180;-68
2023/05/11 02:29:52;;;;;;;4.70;3.20;;;;;;;8.59;nan;-14832.00;4953579;28;20184;-69
2023/05/11 02:32:20;;;;;;;5.10;3.37;;;;;;;8.78;nan;-14834.50;4953360;28;20201;-69
2023/05/11 02:35:08;;;;;;;4.80;3.30;;;;;;;8.74;nan;-16108.00;4953882;28;20178;-69
2023/05/11 02:37:38;;;;;;;7.20;3.40;;;;;;;8.68;nan;-15788.66;4953652;28;20170;-70
2023/05/11 02:40:14;;;;;;;5.53;3.27;;;;;;;8.67;nan;-15788.44;4953637;28;20606;-69
2023/05/11 02:42:41;;;;;;;5.60;3.30;;;;;;;8.66;nan;-14832.91;4953482;28;20228;-69
2023/05/11 02:45:08;;;;;;;6.70;3.97;;;;;;;8.63;nan;-15151.03;4954030;28;20199;-68
2023/05/11 02:47:41;;;;;;;9.40;3.93;;;;;;;8.79;nan;-16427.22;4953529;28;20265;-68
2023/05/11 02:50:08;;;;;;;5.37;3.13;;;;;;;8.51;nan;-17059.34;4977443;28;20339;-69
2023/05/11 02:52:38;;;;;;;6.60;3.70;;;;;;;8.73;nan;-17381.38;4972793;28;20185;-68
2023/05/11 02:55:05;;;;;;;5.27;3.70;;;;;;;8.80;nan;-17700.91;4972316;28;20610;-69
2023/05/11 02:57:30;;;;;;;8.20;3.53;;;;;;;8.61;nan;-17697.53;4972821;28;20185;-68
2023/05/11 02:59:56;;;;;;;5.33;3.77;;;;;;;8.89;nan;-17065.63;4987579;28;20180;-69
2023/05/11 03:02:22;;;;;;;7.50;3.97;;;;;;;8.56;nan;-17378.31;4972425;28;20192;-69
2023/05/11 03:04:47;;;;;;;6.03;3.90;;;;;;;8.88;nan;-17065.38;4972702;28;20708;-69
2023/05/11 03:07:13;;;;;;;5.97;3.50;;;;;;;8.91;nan;-17384.41;4972491;28;20252;-68
2023/05/11 03:09:38;;;;;;;8.70;3.80;;;;;;;8.92;nan;-17066.06;4972466;28;20178;-68
2023/05/11 03:12:05;;;;;;;7.20;4.50;;;;;;;8.91;nan;-17065.88;4974734;28;20225;-68
2023/05/11 03:14:35;;;;;;;5.00;3.83;;;;;;;8.82;nan;-16746.13;4972521;28;20189;-67
2023/05/11 03:17:01;;;;;;;6.57;4.30;;;;;;;8.90;nan;-15791.75;4972719;28;20192;-69
2023/05/11 03:19:28;;;;;;;6.63;4.50;;;;;;;9.05;nan;-16431.16;4972770;28;20265;-68
2023/05/11 03:21:56;;;;;;;5.50;3.63;;;;;;;9.11;nan;-16432.19;4972439;28;20185;-68
2023/05/11 03:24:23;;;;;;;5.07;3.63;;;;;;;9.30;nan;-16116.38;4974271;28;20197;-70
2023/05/11 03:26:50;;;;;;;5.40;3.60;;;;;;;9.51;nan;-11014.03;4972572;28;20196;-68
2023/05/11 03:29:16;;;;;;;7.10;3.60;;;;;;;9.56;nan;-5260.66;4972304;28;20272;-68
2023/05/11 03:31:42;;;;;;;4.05;3.35;;;;;;;9.46;nan;-1740.31;4972426;28;20178;-69
2023/05/11 03:34:07;;;;;;;5.43;3.65;;;;;;;9.14;nan;-3342.88;4972430;28;20196;-68
2023/05/11 03:36:34;;;;;;;7.35;3.75;;;;;;;9.28;nan;-4941.59;4972194;28;20174;-69
2023/05/11 03:39:01;;;;;;;6.73;4.07;;;;;;;9.17;nan;-8457.44;4972290;28;20633;-69
2023/05/11 03:41:28;;;;;;;5.90;3.90;;;;;;;9.10;nan;-9095.94;4971073;28;20185;-69
2023/05/11 03:43:56;;;;;;;6.93;4.20;;;;;;;9.28;nan;-7179.56;4972074;28;20202;-70
2023/05/11 03:46:23;;;;;;;6.25;3.83;;;;;;;9.29;nan;-9096.63;4972001;28;20166;-68
2023/05/11 03:48:49;;;;;;;6.23;4.00;;;;;;;9.06;nan;-8776.47;4975321;28;20192;-68
2023/05/11 03:51:15;;;;;;;6.90;4.25;;;;;;;9.30;nan;-8457.75;4975478;28;20177;-69
2023/05/11 03:53:40;;;;;;;7.90;4.68;;;;;;;9.01;nan;-9095.59;4975017;28;20184;-68
2023/05/11 03:56:06;;;;;;;8.43;4.43;;;;;;;9.29;nan;-7499.16;4975497;28;20641;-69
2023/05/11 03:58:32;;;;;;;7.65;4.95;;;;;;;9.26;nan;-7499.13;4974812;28;20173;-69
2023/05/11 04:00:58;;;;;;;5.93;4.18;;;;;;;9.20;nan;-7499.06;4976591;28;20276;-68
2023/05/11 04:03:23;;;;;;;8.18;4.50;;;;;;;9.24;nan;-6540.31;4974927;28;20251;-67
2023/05/11 04:05:48;;;;;;;7.45;4.68;;;;;;;9.19;nan;-6540.34;4974785;28;20181;-67
2023/05/11 04:08:14;;;;;;;6.65;4.80;;;;;;;9.00;nan;-8776.28;4974585;28;20177;-67
2023/05/11 04:10:39;;;;;;;8.63;5.30;;;;;;;9.24;nan;-6859.94;4974773;28;20343;-68
2023/05/11 04:13:05;;;;;;;8.38;4.97;;;;;;;9.43;nan;-5261.00;4973843;28;20644;-67
2023/05/11 04:15:30;;;;;;;7.43;4.90;;;;;;;8.02;nan;-2071.78;4974764;28;20174;-66
2023/05/11 04:17:56;;;;;;;8.15;4.82;;;;;;;9.54;nan;-137.91;4975521;28;20173;-68
2023/05/11 04:20:21;;;;;;;8.82;4.95;;;;;;;9.50;nan;4992.03;4975573;28;20208;-69
2023/05/11 04:22:46;;;;;;;7.35;4.93;;;;;;;9.74;nan;6923.47;4975142;28;20181;-70
2023/05/11 04:25:12;;;;;;;5.90;3.85;;;;;;;9.88;nan;11427.66;4975066;28;20177;-69
2023/05/11 04:27:38;;;;;;;7.85;4.38;;;;;;;10.10;nan;14976.69;4975174;28;20236;-70
2023/05/11 04:30:05;;;;;;;7.07;4.25;;;;;;;10.31;nan;28224.91;4974867;28;20594;-69
2023/05/11 04:32:30;;;;;;;6.15;3.80;;;;;;;10.73;nan;46502.63;4974810;28;20225;-69
2023/05/11 04:34:55;;;;;;;5.95;3.90;;;;;;;10.57;nan;53509.56;4973711;28;20565;-73
2023/05/11 04:37:21;;;;;;;5.63;3.50;;;;;;;10.79;nan;54306.66;4976176;28;20562;-70
2023/05/11 04:39:46;;;;;;;6.45;3.72;;;;;;;10.59;nan;55270.34;4974533;28;20189;-70
2023/05/11 04:42:12;;;;;;;6.30;3.90;;;;;;;10.88;nan;56341.19;4974141;28;20189;-68
2023/05/11 04:44:38;;;;;;;11.10;4.22;;;;;;;10.71;nan;56759.03;4974225;28;20260;-70
2023/05/11 04:47:03;;;;;;;6.57;4.18;;;;;;;10.96;nan;57492.50;4974508;28;20177;-69
2023/05/11 04:49:29;;;;;;;5.32;3.45;;;;;;;11.28;nan;58422.84;4973121;28;20549;-70
2023/05/11 04:51:54;;;;;;;4.68;3.60;;;;;;;11.17;nan;58498.31;4975966;28;20181;-70
2023/05/11 04:54:20;;;;;;;6.30;4.10;;;;;;;11.40;nan;58932.19;4974531;28;20276;-69
2023/05/11 04:56:45;;;;;;;7.05;3.90;;;;;;;11.47;nan;59401.94;4974163;28;20165;-70
2023/05/11 04:59:10;;;;;;;4.63;3.47;;;;;;;11.61;nan;59821.38;4973078;28;20283;-69
2023/05/11 05:01:36;;;;;;;5.25;3.47;;;;;;;12.10;nan;60166.38;4974573;28;20711;-71
2023/05/11 05:04:01;;;;;;;6.68;3.78;;;;;;;11.93;nan;60158.81;4974204;28;20198;-69
2023/05/11 05:06:27;;;;;;;6.35;3.60;;;;;;;12.12;nan;60460.41;4973637;28;20192;-69
2023/05/11 05:08:52;;;;;;;6.03;4.40;;;;;;;12.31;nan;60374.13;4974086;28;20291;-68
2023/05/11 05:11:18;;;;;;;6.82;4.00;;;;;;;12.13;nan;60436.50;4972080;28;20312;-70
2023/05/11 05:13:43;;;;;;;6.00;4.38;;;;;;;12.21;nan;60514.56;4973705;28;20205;-69
2023/05/11 05:16:09;;;;;;;6.30;3.78;;;;;;;12.24;nan;60409.84;4973902;28;20193;-70
2023/05/11 05:18:35;;;;;;;6.97;3.92;;;;;;;11.80;nan;60455.91;4973890;28;20181;-68
2023/05/11 05:21:01;;;;;;;8.70;3.80;;;;;;;12.35;nan;60727.44;4973881;28;20177;-70
2023/05/11 05:23:26;;;;;;;5.93;3.83;;;;;;;12.13;nan;60531.22;4973857;28;20694;-69
2023/05/11 05:25:52;;;;;;;7.22;3.78;;;;;;;12.39;nan;60567.47;4973939;28;20177;-70
2023/05/11 05:28:17;;;;;;;5.10;3.50;;;;;;;12.09;nan;60467.31;4974266;28;20210;-69
2023/05/11 05:30:43;;;;;;;4.10;2.80;;;;;;;11.72;nan;60380.41;4973568;28;20562;-69
2023/05/11 05:33:08;;;;;;;5.07;3.05;;;;;;;11.88;nan;60375.31;4973267;28;20266;-70
2023/05/11 05:35:34;;;;;;;4.22;2.63;;;;;;;8.66;nan;60150.53;4973538;28;20178;-69
2023/05/11 05:37:59;;;;;;;5.78;3.17;;;;;;;11.87;nan;60571.78;4972286;28;20185;-70
2023/05/11 05:40:25;;;;;;;4.72;2.97;;;;;;;12.41;nan;60492.84;4973470;28;20177;-70
2023/05/11 05:42:50;;;;;;;4.25;2.72;;;;;;;12.91;nan;60619.44;4973324;28;20241;-69
2023/05/11 05:45:16;;;;;;;3.83;3.00;;;;;;;12.84;nan;60666.56;4972297;28;20185;-70
2023/05/11 05:47:41;;;;;;;10.65;3.15;;;;;;;13.07;nan;60735.38;4973710;28;20243;-70
2023/05/11 05:50:07;;;;;;;4.85;2.92;;;;;;;13.20;nan;60985.94;4972870;28;20196;-70
2023/05/11 05:52:32;;;;;;;3.92;2.70;;;;;;;12.79;nan;60858.28;4972679;28;20220;-69
2023/05/11 05:54:58;;;;;;;6.15;3.22;;;;;;;12.94;nan;60738.19;4973470;28;20672;-70
2023/05/11 05:57:23;;;;;;;5.90;2.95;;;;;;;13.36;nan;60743.75;4971782;28;20193;-69
2023/05/11 05:59:49;;;;;;;3.97;3.40;;;;;;;13.27;nan;60768.09;4973144;28;20280;-70
2023/05/11 06:02:14;;;;;;;3.75;2.47;;;;;;;13.08;nan;60771.84;4973425;28;20161;-70
2023/05/11 06:04:40;;;;;;;3.63;2.65;;;;;;;12.40;nan;60712.00;4972906;28;20193;-70
2023/05/11 06:07:06;;;;;;;4.47;2.95;;;;;;;12.32;nan;60621.63;4973090;28;20224;-69
2023/05/11 06:09:31;;;;;;;4.05;2.47;;;;;;;12.38;nan;60771.22;4972753;28;20752;-70
2023/05/11 06:11:57;;;;;;;4.85;2.92;;;;;;;11.99;nan;60710.06;4972650;28;20220;-70
2023/05/11 06:14:22;;;;;;;5.22;2.95;;;;;;;12.08;nan;60734.97;4973227;28;20629;-70
2023/05/11 06:16:48;;;;;;;3.88;2.95;;;;;;;11.86;nan;60603.91;4971582;28;20224;-70
2023/05/11 06:19:14;;;;;;;4.20;2.92;;;;;;;11.89;nan;60614.94;4972856;28;20173;-70
2023/05/11 06:21:44;;;;;;;7.32;3.40;;;;;;;11.74;nan;60600.16;4972901;28;20177;-70
2023/05/11 06:24:10;;;;;;;4.30;2.90;;;;;;;11.95;nan;60613.44;4971574;28;20591;-69
2023/05/11 06:26:36;;;;;;;4.95;2.97;;;;;;;11.95;nan;60601.22;4972845;28;20184;-69
2023/05/11 06:29:01;;;;;;;5.05;2.60;;;;;;;11.89;nan;60686.03;4972900;28;20700;-70
2023/05/11 06:31:28;;;;;;;3.83;2.78;;;;;;;12.31;nan;60797.22;4971426;28;20681;-70
2023/05/11 06:33:53;;;;;;;3.78;2.85;;;;;;;12.31;nan;60635.88;4972867;28;20273;-68
2023/05/11 06:36:19;;;;;;;6.47;3.15;;;;;;;12.45;nan;60768.25;4971375;28;20276;-69
2023/05/11 06:38:44;;;;;;;3.45;2.90;;;;;;;12.47;nan;60652.69;4972751;28;20261;-70
2023/05/11 06:41:10;;;;;;;4.53;3.00;;;;;;;13.02;nan;60754.84;4972717;28;20750;-68
2023/05/11 06:43:37;;;;;;;4.90;2.97;;;;;;;13.28;nan;60805.13;4971156;28;20220;-69
2023/05/11 06:46:03;;;;;;;5.05;3.45;;;;;;;13.14;nan;60830.44;4971100;28;20640;-70
2023/05/11 06:48:28;;;;;;;4.30;3.03;;;;;;;13.10;nan;60933.63;4972025;28;20166;-69
2023/05/11 06:50:55;;;;;;;5.10;3.03;;;;;;;13.30;nan;60993.53;4971185;28;20181;-69
2023/05/11 06:53:20;;;;;;;4.63;3.13;;;;;;;13.43;nan;60859.91;4972973;28;20170;-70
2023/05/11 06:55:46;;;;;;;4.18;3.13;;;;;;;13.63;nan;60910.06;4972969;28;20332;-71
2023/05/11 06:58:12;;;;;;;4.55;3.10;;;;;;;13.96;nan;60967.19;4972730;28;20256;-69
2023/05/11 07:00:38;;;;;;;6.13;3.53;;;;;;;13.70;nan;61053.97;4973022;28;20174;-69
2023/05/11 07:03:04;;;;;;;5.00;3.08;;;;;;;14.14;nan;61113.31;4972340;28;20266;-69
2023/05/11 07:05:30;;;;;;;4.60;3.25;;;;;;;14.16;nan;61159.22;4972838;28;20169;-69
2023/05/11 07:07:55;;;;;;;4.95;3.22;;;;;;;14.45;nan;61317.94;4973207;28;20170;-71
2023/05/11 07:10:21;;;;;;;4.95;3.20;;;;;;;13.95;nan;60974.31;4972599;28;20229;-70
2023/05/11 07:12:46;;;;;;;4.38;2.92;;;;;;;13.71;nan;60893.41;4973299;28;20172;-71
2023/05/11 07:15:11;;;;;;;4.50;2.60;;;;;;;13.77;nan;61072.16;4972741;28;20645;-70
2023/05/11 07:17:37;;;;;;;5.22;3.28;;;;;;;13.80;nan;60908.09;4971027;28;20173;-68
2023/05/11 07:20:02;;;;;;;5.25;2.75;;;;;;;13.85;nan;61008.72;4972725;28;20165;-69
2023/05/11 07:22:28;;;;;;;6.43;3.15;;;;;;;13.52;nan;61041.97;4974287;28;20272;-69
2023/05/11 07:24:53;;;;;;;4.78;3.25;;;;;;;13.66;nan;61152.72;4976080;28;20196;-69
2023/05/11 07:27:18;;;;;;;4.60;3.20;;;;;;;14.35;nan;61067.63;4975939;28;20276;-70
2023/05/11 07:29:44;;;;;;;4.50;2.85;;;;;;;14.64;nan;61240.63;4976372;28;20173;-69
2023/05/11 07:32:09;;;;;;;4.25;2.58;;;;;;;14.26;nan;61329.25;4991170;28;20700;-70
2023/05/11 07:34:35;;;;;;;4.13;2.65;;;;;;;13.89;nan;61101.09;4974661;28;20645;-71
2023/05/11 07:37:00;;;;;;;4.10;2.70;;;;;;;14.19;nan;61146.66;4976976;28;20161;-69
2023/05/11 07:39:26;;;;;;;4.60;2.85;;;;;;;14.87;nan;61228.59;4976174;28;20633;-70
2023/05/11 07:41:51;;;;;;;4.72;3.10;;;;;;;15.09;nan;61077.38;4976036;28;20176;-68
2023/05/11 07:44:17;;;;;;;3.65;2.95;;;;;;;14.77;nan;61178.72;4975803;28;20193;-70
2023/05/11 07:46:42;;;;;;;4.53;3.05;;;;;;;14.37;nan;61008.25;4976010;28;20593;-70
2023/05/11 07:49:09;;;;;;;7.60;3.97;;;;;;;14.66;nan;61078.88;4976020;28;20308;-70
2023/05/11 07:51:35;;;;;;;4.28;3.20;;;;;;;15.45;nan;61130.81;4976461;28;20660;-69
2023/05/11 07:54:00;;;;;;;4.40;3.00;;;;;;;15.87;nan;61288.41;4975782;28;20177;-69
2023/05/11 07:56:26;;;;;;;6.47;3.08;;;;;;;15.58;nan;61289.13;4975581;28;20564;-69
2023/05/11 07:58:51;;;;;;;4.65;2.80;;;;;;;16.16;nan;61555.16;4975972;28;20174;-70
2023/05/11 08:01:17;;;;;;;4.30;2.60;;;;;;;16.05;nan;61326.22;4975545;28;20180;-71
2023/05/11 08:03:42;;;;;;;2.95;2.10;;;;;;;15.78;nan;61289.13;4974477;28;20208;-71
2023/05/11 08:06:08;;;;;;;2.85;2.25;;;;;;;14.85;nan;61226.31;4976220;28;20176;-70
2023/05/11 08:08:33;;;;;;;4.88;2.40;;;;;;;15.12;nan;61235.13;4976096;28;20164;-69
2023/05/11 08:11:00;;;;;;;3.80;2.47;;;;;;;14.91;nan;61408.00;4975520;28;20259;-69
2023/05/11 08:13:25;;;;;;;5.75;2.95;;;;;;;14.82;nan;61192.09;4975706;28;20181;-70
2023/05/11 08:15:51;;;;;;;3.40;2.60;;;;;;;15.36;nan;61267.38;4975583;28;20173;-71
2023/05/11 08:18:16;;;;;;;3.50;2.30;;;;;;;14.33;nan;61181.00;4975472;28;20554;-69
2023/05/11 08:20:42;;;;;;;2.85;2.30;;;;;;;14.72;nan;61335.06;4975685;28;20260;-69
2023/05/11 08:23:08;;;;;;;3.47;2.38;;;;;;;13.93;nan;61149.25;4975453;28;20232;-70
2023/05/11 08:25:34;;;;;;;2.78;2.38;;;;;;;14.28;nan;61167.09;4975658;28;20173;-69
2023/05/11 08:28:00;;;;;;;3.55;2.30;;;;;;;14.13;nan;61182.13;4975340;28;20197;-68
2023/05/11 08:30:26;;;;;;;5.13;2.72;;;;;;;13.72;nan;61125.56;4975144;28;20174;-69
2023/05/11 08:32:51;;;;;;;3.45;2.50;;;;;;;13.99;nan;61135.47;4990232;28;20185;-70
2023/05/11 08:35:17;;;;;;;2.90;2.33;;;;;;;13.81;nan;61133.16;4975249;28;20557;-70
2023/05/11 08:37:42;;;;;;;3.75;2.88;;;;;;;13.95;nan;61089.88;4975193;28;20284;-72
2023/05/11 08:40:10;;;;;;;2.20;2.00;;;;;;;14.44;nan;61174.88;4975006;28;20188;-69
2023/05/11 08:42:39;;;;;;;2.63;2.10;;;;;;;14.08;nan;61145.63;4974645;28;20180;-70
2023/05/11 08:45:06;;;;;;;4.13;2.50;;;;;;;14.22;nan;61188.56;4974933;28;20352;-71
2023/05/11 08:47:32;;;;;;;3.25;2.22;;;;;;;14.06;nan;61133.09;4974704;28;20565;-70
2023/05/11 08:49:58;;;;;;;5.63;3.25;;;;;;;13.90;nan;61119.63;4975360;28;20174;-70
2023/05/11 08:52:24;;;;;;;3.28;2.40;;;;;;;14.32;nan;61161.91;4974870;28;20188;-69
2023/05/11 08:54:50;;;;;;;3.13;2.55;;;;;;;14.26;nan;61147.41;4974779;28;20169;-70
2023/05/11 08:57:16;;;;;;;4.00;2.83;;;;;;;14.52;nan;61184.47;4974464;28;20176;-69
2023/05/11 08:59:45;;;;;;;3.65;2.70;;;;;;;14.52;nan;61165.91;4974686;28;20188;-69
2023/05/11 09:02:15;;;;;;;3.60;2.63;;;;;;;15.35;nan;61294.56;4974779;28;20184;-70
2023/05/11 09:04:41;;;;;;;3.35;2.53;;;;;;;15.13;nan;61246.53;4974824;28;20767;-68
2023/05/11 09:07:08;;;;;;;3.40;2.60;;;;;;;15.49;nan;61307.81;4974720;28;20660;-69
2023/05/11 09:09:34;;;;;;;3.88;2.55;;;;;;;16.17;nan;61589.81;4974284;28;20252;-70
2023/05/11 09:12:00;;;;;;;3.42;2.72;;;;;;;16.50;nan;61438.44;4974237;28;20827;-70
2023/05/11 09:14:26;;;;;;;2.92;2.33;;;;;;;16.73;nan;61516.13;4974031;28;20177;-70
2023/05/11 09:16:51;;;;;;;3.50;2.70;;;;;;;17.29;nan;61486.06;4974401;28;20180;-69
2023/05/11 09:19:17;;;;;;;5.85;2.63;;;;;;;16.32;nan;61387.72;4974210;28;20185;-70
2023/05/11 09:21:42;;;;;;;2.83;2.53;;;;;;;16.32;nan;61362.47;4974445;28;20651;-70
2023/05/11 09:24:12;;;;;;;3.40;2.47;;;;;;;16.13;nan;61560.06;4989093;28;20271;-69
2023/05/11 09:26:37;;;;;;;3.85;2.30;;;;;;;15.86;nan;61521.72;4974416;28;20177;-70
2023/05/11 09:29:03;;;;;;;2.83;2.38;;;;;;;15.70;nan;61328.44;4973886;28;20181;-68
2023/05/11 09:31:36;;;;;;;3.20;2.47;;;;;;;16.07;nan;61356.84;4974466;28;20165;-69
2023/05/11 09:34:20;;;;;;;2.38;2.10;;;;;;;16.21;nan;61378.41;4975938;28;20252;-69
2023/05/11 09:36:47;;;;;;;4.68;2.22;;;;;;;17.32;nan;61484.31;4973886;28;20170;-70
2023/05/11 09:39:13;;;;;;;2.97;2.15;;;;;;;17.15;nan;61672.16;4975815;28;20184;-70
2023/05/11 09:41:39;;;;;;;3.03;2.50;;;;;;;17.32;nan;61504.38;4977777;28;20181;-69
2023/05/11 09:44:09;;;;;;;2.45;2.22;;;;;;;17.25;nan;61499.06;4973230;28;20284;-69
2023/05/11 09:46:39;;;;;;;4.32;2.67;;;;;;;17.19;nan;61712.28;4973178;28;20264;-70
2023/05/11 09:49:06;;;;;;;3.70;2.50;;;;;;;16.01;nan;61383.53;4973761;28;20181;-70
2023/05/11 09:51:34;;;;;;;2.70;2.17;;;;;;;16.81;nan;61439.47;4973430;28;20185;-70
2023/05/11 09:54:03;;;;;;;3.15;2.40;;;;;;;17.26;nan;61469.75;4975076;28;20566;-70
2023/05/11 09:56:48;;;;;;;3.25;2.40;;;;;;;17.34;nan;61519.56;4973359;28;20189;-71
2023/05/11 09:59:16;;;;;;;3.38;2.40;;;;;;;16.79;nan;61407.38;4975498;28;20184;-70
2023/05/11 10:01:41;;;;;;;3.00;2.50;;;;;;;17.69;nan;61553.53;4975011;28;20213;-69
2023/05/11 10:04:10;;;;;;;3.78;2.80;;;;;;;18.18;nan;61603.91;4974296;28;20301;-68
2023/05/11 10:06:45;;;;;;;2.95;2.28;;;;;;;17.76;nan;61727.41;4974391;28;20181;-70
2023/05/11 10:09:12;;;;;;;3.78;2.40;;;;;;;17.56;nan;61534.75;4955900;28;20243;-70
2023/05/11 10:11:42;;;;;;;2.90;2.47;;;;;;;17.48;nan;61540.63;4970237;28;20232;-70
2023/05/11 10:14:26;;;;;;;2.85;2.30;;;;;;;17.06;nan;61447.66;4974480;28;20188;-71
2023/05/11 10:16:55;;;;;;;3.47;2.53;;;;;;;16.15;nan;61389.66;4969359;28;20220;-68
2023/05/11 10:19:21;;;;;;;5.43;2.85;;;;;;;16.50;nan;61441.03;4971902;28;20184;-70
2023/05/11 10:21:46;;;;;;;3.85;2.80;;;;;;;16.50;nan;61384.28;4972368;28;20649;-69
2023/05/11 10:24:13;;;;;;;9.98;3.25;;;;;;;16.99;nan;61490.81;4972309;28;20209;-70
2023/05/11 10:26:39;;;;;;;40.78;9.52;;;;;;;17.34;nan;61527.31;4971596;28;20201;-70
2023/05/11 10:29:05;;;;;;;4.70;2.95;;;;;;;16.98;nan;61432.91;4974040;28;20185;-70
2023/05/11 10:31:31;;;;;;;3.13;2.65;;;;;;;16.28;nan;61391.47;4971740;28;20182;-70
2023/05/11 10:33:58;;;;;;;3.20;2.40;;;;;;;16.56;nan;61365.84;4972710;28;20189;-70
2023/05/11 10:36:25;;;;;;;6.63;2.90;;;;;;;16.50;nan;61379.72;4972626;28;20227;-70
2023/05/11 10:38:50;;;;;;;3.17;2.50;;;;;;;16.41;nan;61368.97;4972276;28;20197;-69
2023/05/11 10:41:38;;;;;;;3.50;2.58;;;;;;;16.70;nan;61399.75;4972020;28;20221;-71
2023/05/11 10:44:18;;;;;;;3.30;2.85;;;;;;;16.52;nan;61384.53;4971418;28;20200;-69
2023/05/11 10:46:55;;;;;;;3.05;2.60;;;;;;;16.49;nan;61417.25;4974466;28;20259;-69
2023/05/11 10:49:23;;;;;;;3.03;2.42;;;;;;;16.47;nan;61442.78;4972065;28;20611;-69
2023/05/11 10:52:19;;;;;;;4.60;3.15;;;;;;;16.67;nan;61424.75;4972167;28;20677;-70
2023/05/11 10:54:48;;;;;;;3.53;2.85;;;;;;;17.17;nan;61413.09;4972548;28;20247;-69
2023/05/11 10:57:27;;;;;;;3.50;2.67;;;;;;;17.29;nan;61540.31;4973747;28;20169;-70
2023/05/11 11:00:16;;;;;;;4.68;2.83;;;;;;;17.62;nan;61520.88;4978520;28;20184;-68
2023/05/11 11:02:44;;;;;;;3.60;2.65;;;;;;;17.57;nan;61504.84;4976248;28;20173;-69
2023/05/11 11:05:12;;;;;;;3.63;2.63;;;;;;;17.90;nan;61539.13;4976397;28;20255;-70
2023/05/11 11:07:58;;;;;;;3.35;2.65;;;;;;;17.87;nan;61566.16;4975043;28;20196;-69
2023/05/11 11:10:35;;;;;;;3.10;2.50;;;;;;;17.25;nan;61465.50;4978307;28;20611;-70
2023/05/11 11:13:06;;;;;;;2.55;2.33;;;;;;;17.22;nan;61475.56;4975285;28;20181;-69
2023/05/11 11:15:53;;;;;;;2.90;2.47;;;;;;;17.12;nan;61495.78;4978388;28;20201;-68
2023/05/11 11:18:27;;;;;;;3.17;2.58;;;;;;;17.22;nan;61493.63;4969047;28;20185;-70
2023/05/11 11:20:54;;;;;;;2.88;2.55;;;;;;;17.80;nan;61506.56;4976164;28;20177;-68
2023/05/11 11:23:38;;;;;;;3.53;3.10;;;;;;;17.88;nan;61542.03;4975545;28;20197;-69
2023/05/11 11:26:03;;;;;;;3.85;2.80;;;;;;;17.57;nan;61535.84;4975889;28;20668;-68
2023/05/11 11:28:59;;;;;;;3.38;2.75;;;;;;;17.20;nan;61463.53;4975860;28;20174;-69
2023/05/11 11:31:31;;;;;;;3.05;2.58;;;;;;;17.36;nan;61721.25;4975966;28;20319;-70
2023/05/11 11:34:18;;;;;;;3.25;2.67;;;;;;;17.86;nan;61519.06;4975562;28;20204;-69
2023/05/11 11:37:02;;;;;;;3.78;2.90;;;;;;;18.24;nan;61527.94;4977774;28;20189;-69
2023/05/11 11:39:49;;;;;;;4.25;3.33;;;;;;;18.38;nan;61631.75;4975323;28;20669;-69
2023/05/11 11:42:36;;;;;;;4.03;3.10;;;;;;;18.45;nan;61621.03;4975223;28;20622;-70
2023/05/11 11:45:28;;;;;;;3.83;2.85;;;;;;;18.15;nan;61607.69;4975727;28;20219;-70
2023/05/11 11:48:12;;;;;;;5.55;3.25;;;;;;;18.67;nan;61607.19;4978016;28;20225;-71
2023/05/11 11:50:40;;;;;;;3.80;3.13;;;;;;;19.17;nan;61684.03;4969165;28;20182;-68
2023/05/11 11:53:09;;;;;;;3.40;2.95;;;;;;;19.92;nan;61801.78;4977550;28;20193;-70
2023/05/11 11:55:49;;;;;;;3.90;3.15;;;;;;;19.68;nan;61720.63;4974116;28;20574;-71